Anthony, Pennsylvania
Current Conditions -  °F | °C
As of 5:54 PM on Monday 22 Dec 2014 (Local Time) from KIPT Reporting Station
Overcast Overcast  
Wind Chill: 34°   Ceiling: 3500
Heat Index: 34°   Visibility: 10mi
Dew Point: 25°   Wind: 3mph
Humidity: 70%   Direction: 110°ESE
Pressure: 30.17"   Gusts: NA
Location:  41.1183°N, 76.7254°W
Report Text: KIPT 222254Z 11003KT 10SM OVC035 01/M04 A3017 RMK AO2 SLP223 T00111039
Loading
Personal Weather Stations






























Interactive Weather Map New forecast layout! Learn more

10-Day Weather Forecast

Advertisements
Track Severe Weather on mobile